Conon Bridge, United Kingdom
Current Conditions -  °F | °C
As of 10:50 PM on Sunday 21 Dec 2014 (Local Time) from EGPE Reporting Station
Light Rain Light Rain  
Wind Chill: 41°   Ceiling: Unl
Heat Index: 46°   Visibility: 6mi
Dew Point: 41°   Wind: 13mph
Humidity: 81%   Direction: 240°WSW
Pressure: 29.47"   Gusts: NA
Location:  57.57°N, 4.44°W
Report Text: EGPE 212250Z AUTO 24011KT 9999 -RA FEW029/// SCT041/// 08/05 Q0998
Loading
Personal Weather Stations






























Interactive Weather Map New forecast layout! Learn more

10-Day Weather Forecast

Advertisements
Track Severe Weather on mobile